createdAt,value
2022-08-05T00:01:35.471Z,17.36
2022-08-05T00:04:02.424Z,17.36
2022-08-05T00:06:33.245Z,17.35
2022-08-05T00:09:03.125Z,17.30
2022-08-05T00:11:34.484Z,17.25
2022-08-05T00:14:12.762Z,17.18
2022-08-05T00:16:52.856Z,17.11
2022-08-05T00:19:22.247Z,17.08
2022-08-05T00:21:49.400Z,17.08
2022-08-05T00:24:19.050Z,17.10
2022-08-05T00:26:52.083Z,17.09
2022-08-05T00:29:22.541Z,17.10
2022-08-05T00:32:10.530Z,17.09
2022-08-05T00:35:04.036Z,17.07
2022-08-05T00:37:50.737Z,17.04
2022-08-05T00:40:17.921Z,17.03
2022-08-05T00:42:59.208Z,17.03
2022-08-05T00:45:38.294Z,17.02
2022-08-05T00:48:11.338Z,17.03
2022-08-05T00:50:41.220Z,17.04
2022-08-05T00:53:09.914Z,17.02
2022-08-05T00:55:55.791Z,17.00
2022-08-05T00:58:22.377Z,16.99
2022-08-05T01:00:55.666Z,16.99
2022-08-05T01:03:23.415Z,16.97
2022-08-05T01:05:54.481Z,16.95
2022-08-05T01:08:40.219Z,16.89
2022-08-05T01:11:13.613Z,16.80
2022-08-05T01:14:00.107Z,16.75
2022-08-05T01:16:38.728Z,16.72
2022-08-05T01:19:56.933Z,16.70
2022-08-05T01:22:37.504Z,16.61
2022-08-05T01:25:13.504Z,16.53
2022-08-05T01:27:50.554Z,16.51
2022-08-05T01:30:33.706Z,16.49
2022-08-05T01:33:06.081Z,16.49
2022-08-05T01:35:51.216Z,16.50
2022-08-05T01:38:27.582Z,16.50
2022-08-05T01:40:59.768Z,16.51
2022-08-05T01:43:29.244Z,16.53
2022-08-05T01:45:57.766Z,16.54
2022-08-05T01:48:27.238Z,16.55
2022-08-05T01:50:56.858Z,16.56
2022-08-05T01:53:54.588Z,16.54
2022-08-05T01:58:12.461Z,16.52
2022-08-05T01:59:08.037Z,16.51
2022-08-05T02:01:39.764Z,16.49
2022-08-05T02:04:09.316Z,16.48
2022-08-05T02:06:38.989Z,16.46
2022-08-05T02:09:07.425Z,16.46
2022-08-05T02:12:07.079Z,16.45
2022-08-05T02:15:03.067Z,16.44
2022-08-05T02:18:31.053Z,16.43
2022-08-05T02:20:22.327Z,16.39
2022-08-05T02:23:01.191Z,16.35
2022-08-05T02:25:33.350Z,16.34
2022-08-05T02:28:02.398Z,16.35
2022-08-05T02:30:51.723Z,16.37
2022-08-05T02:33:24.543Z,16.37
2022-08-05T02:36:09.482Z,16.38
2022-08-05T02:38:37.826Z,16.39
2022-08-05T02:41:14.696Z,16.38
2022-08-05T02:44:02.414Z,16.35
2022-08-05T02:46:53.755Z,16.31
2022-08-05T02:49:25.685Z,16.31
2022-08-05T02:52:03.670Z,16.32
2022-08-05T02:54:36.482Z,16.30
2022-08-05T02:57:10.178Z,16.30
2022-08-05T02:59:55.044Z,16.28
2022-08-05T03:02:29.042Z,16.29
2022-08-05T03:04:58.041Z,16.28
2022-08-05T03:07:40.620Z,16.29
2022-08-05T03:10:15.944Z,16.28
2022-08-05T03:12:51.715Z,16.26
2022-08-05T03:15:20.097Z,16.27
2022-08-05T03:17:46.658Z,16.28
2022-08-05T03:20:13.726Z,16.28
2022-08-05T03:22:43.906Z,16.28
2022-08-05T03:25:33.078Z,16.26
2022-08-05T03:28:02.313Z,16.27
2022-08-05T03:30:34.227Z,16.28
2022-08-05T03:33:03.249Z,16.28
2022-08-05T03:35:33.695Z,16.28
2022-08-05T03:38:01.364Z,16.28
2022-08-05T03:40:31.834Z,16.30
2022-08-05T03:43:15.745Z,16.31
2022-08-05T03:45:57.329Z,16.31
2022-08-05T03:48:26.983Z,16.31
2022-08-05T03:52:35.165Z,16.32
2022-08-05T03:55:53.869Z,16.31
2022-08-05T03:56:50.251Z,16.30
2022-08-05T03:59:47.032Z,16.31
2022-08-05T04:02:17.486Z,16.30
2022-08-05T04:05:05.698Z,16.29
2022-08-05T04:07:57.615Z,16.30
2022-08-05T04:10:27.700Z,16.30
2022-08-05T04:12:56.150Z,16.30
2022-08-05T04:15:27.826Z,16.31
2022-08-05T04:18:03.838Z,16.32
2022-08-05T04:20:33.665Z,16.33
2022-08-05T04:23:00.254Z,16.33
2022-08-05T04:25:56.472Z,16.33
2022-08-05T04:28:15.017Z,16.32
2022-08-05T04:30:43.754Z,16.32
2022-08-05T04:33:10.878Z,16.33
2022-08-05T04:36:16.740Z,16.33
2022-08-05T04:38:39.226Z,16.33
2022-08-05T04:41:07.336Z,16.32
2022-08-05T04:43:36.209Z,16.32
2022-08-05T04:46:05.100Z,16.33
2022-08-05T04:48:32.267Z,16.33
2022-08-05T04:51:02.379Z,16.33
2022-08-05T04:53:33.594Z,16.33
2022-08-05T04:56:33.068Z,16.34
2022-08-05T04:58:49.048Z,16.34
2022-08-05T05:01:15.760Z,16.34
2022-08-05T05:04:02.400Z,16.35
2022-08-05T05:06:40.556Z,16.36
2022-08-05T05:09:17.508Z,16.36
2022-08-05T05:11:54.622Z,16.37
2022-08-05T05:14:31.757Z,16.39
2022-08-05T05:17:03.276Z,16.41
2022-08-05T05:19:37.126Z,16.42
2022-08-05T05:22:24.618Z,16.45
2022-08-05T05:24:57.471Z,16.45
2022-08-05T05:27:45.041Z,16.47
2022-08-05T05:30:15.444Z,16.49
2022-08-05T05:32:56.896Z,16.50
2022-08-05T05:35:28.088Z,16.52
2022-08-05T05:38:01.404Z,16.54
2022-08-05T05:40:32.041Z,16.56
2022-08-05T05:42:59.600Z,16.59
2022-08-05T05:45:26.357Z,16.63
2022-08-05T05:48:06.626Z,16.84
2022-08-05T05:50:44.095Z,17.08
2022-08-05T05:53:21.104Z,17.21
2022-08-05T05:55:51.710Z,17.27
2022-08-05T05:58:31.639Z,17.33
2022-08-05T06:01:02.603Z,17.38
2022-08-05T06:04:00.584Z,17.41
2022-08-05T06:06:31.229Z,17.37
2022-08-05T06:09:00.157Z,17.38
2022-08-05T06:11:28.832Z,17.40
2022-08-05T06:13:55.581Z,17.41
2022-08-05T06:16:28.660Z,17.42
2022-08-05T06:19:01.862Z,17.43
2022-08-05T06:21:37.210Z,17.43
2022-08-05T06:24:12.180Z,17.46
2022-08-05T06:26:45.902Z,17.49
2022-08-05T06:29:43.216Z,17.52
2022-08-05T06:32:24.958Z,17.54
2022-08-05T06:34:57.915Z,17.57
2022-08-05T06:37:55.873Z,17.60
2022-08-05T06:40:13.736Z,17.63
2022-08-05T06:42:40.663Z,17.65
2022-08-05T06:45:09.304Z,17.65
2022-08-05T06:48:37.317Z,17.63
2022-08-05T06:50:24.973Z,17.62
2022-08-05T06:52:58.474Z,17.64
2022-08-05T06:55:25.788Z,17.69
2022-08-05T06:58:03.960Z,17.73
2022-08-05T07:00:41.183Z,17.77
2022-08-05T07:03:09.790Z,17.80
2022-08-05T07:05:37.876Z,17.82
2022-08-05T07:08:11.158Z,17.82
2022-08-05T07:10:38.575Z,17.83
2022-08-05T07:13:37.223Z,17.85
2022-08-05T07:18:00.755Z,17.86
2022-08-05T07:19:38.926Z,17.87
2022-08-05T07:22:04.580Z,17.88
2022-08-05T07:24:31.669Z,17.88
2022-08-05T07:26:58.340Z,17.91
2022-08-05T07:30:30.049Z,17.92
2022-08-05T07:32:12.999Z,17.93
2022-08-05T07:34:42.383Z,17.92
2022-08-05T07:37:11.656Z,17.93
2022-08-05T07:40:26.012Z,17.95
2022-08-05T07:42:33.502Z,17.93
2022-08-05T07:45:01.197Z,17.90
2022-08-05T07:47:39.664Z,17.90
2022-08-05T07:50:09.789Z,17.91
2022-08-05T07:52:43.612Z,17.92
2022-08-05T07:55:15.771Z,17.88
2022-08-05T07:58:03.179Z,17.83
2022-08-05T08:00:30.671Z,17.81
2022-08-05T08:03:15.109Z,17.82
2022-08-05T08:05:49.444Z,17.93
2022-08-05T08:08:19.993Z,17.99
2022-08-05T08:10:48.805Z,18.00
2022-08-05T08:13:15.968Z,18.00
2022-08-05T08:16:34.425Z,17.99
2022-08-05T08:18:42.443Z,17.95
2022-08-05T08:21:17.524Z,17.91
2022-08-05T08:24:01.353Z,17.90
2022-08-05T08:26:31.192Z,17.87
2022-08-05T08:29:21.870Z,17.85
2022-08-05T08:31:46.660Z,17.82
2022-08-05T08:34:15.462Z,17.82
2022-08-05T08:36:47.563Z,17.82
2022-08-05T08:39:19.783Z,17.81
2022-08-05T08:41:52.144Z,17.81
2022-08-05T08:45:19.091Z,17.77
2022-08-05T08:48:06.433Z,17.76
2022-08-05T08:50:30.501Z,17.73
2022-08-05T08:53:12.184Z,17.72
2022-08-05T08:56:02.882Z,17.72
2022-08-05T08:58:37.055Z,17.70
2022-08-05T09:01:15.762Z,17.70
2022-08-05T09:03:46.331Z,17.70
2022-08-05T09:06:17.208Z,17.71
2022-08-05T09:08:46.826Z,17.71
2022-08-05T09:11:14.920Z,17.71
2022-08-05T09:14:00.824Z,17.69
2022-08-05T09:16:29.773Z,17.63
2022-08-05T09:18:56.443Z,17.63
2022-08-05T09:22:23.519Z,17.62
2022-08-05T09:24:15.669Z,17.58
2022-08-05T09:26:46.346Z,17.55
2022-08-05T09:29:18.899Z,17.53
2022-08-05T09:32:41.756Z,17.50
2022-08-05T09:34:56.210Z,17.47
2022-08-05T09:38:16.564Z,17.44
2022-08-05T09:40:32.825Z,17.48
2022-08-05T09:43:00.391Z,17.54
2022-08-05T09:46:06.857Z,17.63
2022-08-05T09:48:34.502Z,17.68
2022-08-05T09:51:02.126Z,17.70
2022-08-05T09:53:53.510Z,17.74
2022-08-05T09:56:28.605Z,17.76
2022-08-05T09:59:06.604Z,17.80
2022-08-05T10:01:36.399Z,17.82
2022-08-05T10:04:14.119Z,17.84
2022-08-05T10:06:59.131Z,17.85
2022-08-05T10:09:28.146Z,17.86
2022-08-05T10:12:18.933Z,17.90
2022-08-05T10:15:17.125Z,17.93
2022-08-05T10:18:07.866Z,17.97
2022-08-05T10:20:41.737Z,18.01
2022-08-05T10:23:34.339Z,18.03
2022-08-05T10:26:00.888Z,18.08
2022-08-05T10:28:29.691Z,18.12
2022-08-05T10:32:50.500Z,18.16
2022-08-05T10:33:45.354Z,18.20
2022-08-05T10:36:23.481Z,18.23
2022-08-05T10:39:00.559Z,18.26
2022-08-05T10:41:45.235Z,18.28
2022-08-05T10:44:18.268Z,18.28
2022-08-05T10:46:54.068Z,18.27
2022-08-05T10:49:27.473Z,18.26
2022-08-05T10:52:05.067Z,18.26
2022-08-05T10:55:03.991Z,18.25
2022-08-05T10:57:33.693Z,18.25
2022-08-05T11:00:23.194Z,18.26
2022-08-05T11:02:59.188Z,18.26
2022-08-05T11:06:04.271Z,18.26
2022-08-05T11:08:37.285Z,18.28
2022-08-05T11:11:44.349Z,18.32
2022-08-05T11:18:09.477Z,18.38
2022-08-05T11:20:43.682Z,18.42
2022-08-05T11:24:02.312Z,18.46
2022-08-05T11:26:16.448Z,18.51
2022-08-05T11:28:58.681Z,18.59
2022-08-05T11:31:54.399Z,18.67
2022-08-05T11:34:36.638Z,18.75
2022-08-05T11:37:06.309Z,18.81
2022-08-05T11:39:55.596Z,18.87
2022-08-05T11:42:29.608Z,18.92
2022-08-05T11:45:03.541Z,18.98
2022-08-05T11:47:49.396Z,18.99
2022-08-05T11:50:17.883Z,18.96
2022-08-05T11:52:46.053Z,18.95
2022-08-05T11:55:15.680Z,18.93
2022-08-05T11:58:09.586Z,18.92
2022-08-05T12:00:38.106Z,18.89
2022-08-05T12:03:28.479Z,18.86
2022-08-05T12:06:06.437Z,18.82
2022-08-05T12:08:52.827Z,18.78
2022-08-05T12:11:21.533Z,18.75
2022-08-05T12:14:04.243Z,18.71
2022-08-05T12:16:38.491Z,18.65
2022-08-05T12:19:08.222Z,18.59
2022-08-05T12:21:41.895Z,18.55
2022-08-05T12:24:11.458Z,18.52
2022-08-05T12:26:39.808Z,18.48
2022-08-05T12:29:22.479Z,18.44
2022-08-05T12:31:55.464Z,18.40
2022-08-05T12:34:28.954Z,18.35
2022-08-05T12:37:06.493Z,18.30
2022-08-05T12:39:37.424Z,18.28
2022-08-05T12:42:16.600Z,18.24
2022-08-05T12:44:44.939Z,18.19
2022-08-05T12:47:13.776Z,18.17
2022-08-05T12:50:02.262Z,18.11
2022-08-05T12:52:38.931Z,18.07
2022-08-05T12:55:25.130Z,18.04
2022-08-05T12:58:39.120Z,18.01
2022-08-05T13:02:01.665Z,17.98
2022-08-05T13:03:32.059Z,17.96
2022-08-05T13:05:59.788Z,17.95
2022-08-05T13:08:30.379Z,17.95
2022-08-05T13:11:02.246Z,17.96
2022-08-05T13:14:04.875Z,17.99
2022-08-05T13:16:17.442Z,18.15
2022-08-05T13:18:57.986Z,18.34
2022-08-05T13:21:27.976Z,18.44
2022-08-05T13:24:05.556Z,18.48
2022-08-05T13:26:33.969Z,18.54
2022-08-05T13:29:00.786Z,18.59
2022-08-05T13:31:34.033Z,18.65
2022-08-05T13:34:22.288Z,18.73
2022-08-05T13:36:53.291Z,18.84
2022-08-05T13:40:13.176Z,18.89
2022-08-05T13:42:07.660Z,18.92
2022-08-05T13:44:45.652Z,18.97
2022-08-05T13:47:34.687Z,19.06
2022-08-05T13:50:08.138Z,19.14
2022-08-05T13:52:37.996Z,19.19
2022-08-05T13:55:09.749Z,19.22
2022-08-05T13:57:50.886Z,19.25
2022-08-05T14:00:27.358Z,19.29
2022-08-05T14:02:57.102Z,19.42
2022-08-05T14:05:29.278Z,19.54
2022-08-05T14:08:20.164Z,19.64
2022-08-05T14:10:49.050Z,19.75
2022-08-05T14:13:16.243Z,19.83
2022-08-05T14:16:05.641Z,19.86
2022-08-05T14:18:29.597Z,19.89
2022-08-05T14:20:56.175Z,19.93
2022-08-05T14:23:25.560Z,19.95
2022-08-05T14:25:58.128Z,19.94
2022-08-05T14:28:28.152Z,19.90
2022-08-05T14:30:55.782Z,19.91
2022-08-05T14:33:24.007Z,19.95
2022-08-05T14:35:52.075Z,19.93
2022-08-05T14:38:27.641Z,19.91
2022-08-05T14:41:00.961Z,19.87
2022-08-05T14:43:59.654Z,19.80
2022-08-05T14:46:14.557Z,19.80
2022-08-05T14:48:41.462Z,19.85
2022-08-05T14:51:09.399Z,19.88
2022-08-05T14:53:44.587Z,19.86
2022-08-05T14:56:12.032Z,19.80
2022-08-05T14:58:47.890Z,19.75
2022-08-05T15:01:47.287Z,19.72
2022-08-05T15:04:11.473Z,19.61
2022-08-05T15:06:39.091Z,19.60
2022-08-05T15:09:07.770Z,19.61
2022-08-05T15:11:52.043Z,19.68
2022-08-05T15:14:34.907Z,19.71
2022-08-05T15:17:41.782Z,19.71
2022-08-05T15:19:55.043Z,19.65
2022-08-05T15:22:21.968Z,19.60
2022-08-05T15:24:54.314Z,19.57
2022-08-05T15:27:20.996Z,19.56
2022-08-05T15:29:47.555Z,19.52
2022-08-05T15:32:16.420Z,19.48
2022-08-05T15:34:43.634Z,19.42
2022-08-05T15:37:15.647Z,19.35
2022-08-05T15:41:03.338Z,19.28
2022-08-05T15:42:56.902Z,19.24
2022-08-05T15:45:18.675Z,19.22
2022-08-05T15:47:49.724Z,19.21
2022-08-05T15:50:21.342Z,19.19
2022-08-05T15:52:54.967Z,19.17
2022-08-05T15:55:24.725Z,19.15
2022-08-05T15:58:09.729Z,19.16
2022-08-05T16:01:03.571Z,19.17
2022-08-05T16:03:30.415Z,19.18
2022-08-05T16:05:59.576Z,19.17
2022-08-05T16:08:30.751Z,19.17
2022-08-05T16:10:58.705Z,19.12
2022-08-05T16:13:34.061Z,19.09
2022-08-05T16:16:02.144Z,19.06
2022-08-05T16:18:33.071Z,19.00
2022-08-05T16:21:04.563Z,18.94
2022-08-05T16:23:53.324Z,18.89
2022-08-05T16:26:20.090Z,18.80
2022-08-05T16:28:53.742Z,18.75
2022-08-05T16:31:21.531Z,18.67
2022-08-05T16:33:48.577Z,18.62
2022-08-05T16:36:15.203Z,18.57
2022-08-05T16:38:54.667Z,18.52
2022-08-05T16:42:13.972Z,18.50
2022-08-05T16:44:11.975Z,18.49
2022-08-05T16:46:41.122Z,18.49
2022-08-05T16:49:09.961Z,18.48
2022-08-05T16:51:42.691Z,18.44
2022-08-05T16:54:24.915Z,18.42
2022-08-05T16:56:55.461Z,18.41
2022-08-05T16:59:22.884Z,18.41
2022-08-05T17:01:53.650Z,18.41
2022-08-05T17:04:23.778Z,18.37
2022-08-05T17:06:54.266Z,18.33
2022-08-05T17:09:21.705Z,18.28
2022-08-05T17:11:54.646Z,18.25
2022-08-05T17:14:36.633Z,18.24
2022-08-05T17:17:14.229Z,18.23
2022-08-05T17:19:43.820Z,18.22
2022-08-05T17:22:24.469Z,18.17
2022-08-05T17:24:57.640Z,18.15
2022-08-05T17:27:33.679Z,18.12
2022-08-05T17:30:02.472Z,18.11
2022-08-05T17:32:29.711Z,18.10
2022-08-05T17:34:58.219Z,18.06
2022-08-05T17:37:41.895Z,18.02
2022-08-05T17:40:17.501Z,17.97
2022-08-05T17:42:50.655Z,17.92
2022-08-05T17:45:22.602Z,17.88
2022-08-05T17:47:54.390Z,17.82
2022-08-05T17:50:30.381Z,17.78
2022-08-05T17:53:02.462Z,17.74
2022-08-05T17:55:38.350Z,17.70
2022-08-05T17:58:14.381Z,17.64
2022-08-05T18:00:47.178Z,17.56
2022-08-05T18:03:39.344Z,17.50
2022-08-05T18:06:10.840Z,17.45
2022-08-05T18:08:40.545Z,17.38
2022-08-05T18:11:11.457Z,17.34
2022-08-05T18:13:51.736Z,17.28
2022-08-05T18:16:20.562Z,17.26
2022-08-05T18:18:48.595Z,17.21
2022-08-05T18:21:20.037Z,17.19
2022-08-05T18:23:48.185Z,17.17
2022-08-05T18:26:14.787Z,17.14
2022-08-05T18:28:46.329Z,17.10
2022-08-05T18:31:13.735Z,17.06
2022-08-05T18:33:47.127Z,17.05
2022-08-05T18:36:15.449Z,17.01
2022-08-05T18:38:43.034Z,16.97
2022-08-05T18:41:55.476Z,16.92
2022-08-05T18:43:56.722Z,16.87
2022-08-05T18:46:32.437Z,16.79
2022-08-05T18:49:20.482Z,16.72
2022-08-05T18:52:08.437Z,16.66
2022-08-05T18:54:35.482Z,16.62
2022-08-05T18:57:02.696Z,16.58
2022-08-05T18:59:42.907Z,16.54
2022-08-05T19:02:27.079Z,16.49
2022-08-05T19:05:02.914Z,16.45
2022-08-05T19:07:46.196Z,16.38
2022-08-05T19:10:14.475Z,16.35
2022-08-05T19:12:41.393Z,16.32
2022-08-05T19:15:25.142Z,16.31
2022-08-05T19:18:09.277Z,16.25
2022-08-05T19:20:41.776Z,16.20
2022-08-05T19:24:04.208Z,16.17
2022-08-05T19:26:01.606Z,16.13
2022-08-05T19:28:28.877Z,16.09
2022-08-05T19:30:55.944Z,16.06
2022-08-05T19:33:34.094Z,16.04
2022-08-05T19:36:02.752Z,16.01
2022-08-05T19:38:32.745Z,15.97
2022-08-05T19:40:59.347Z,15.97
2022-08-05T19:44:06.823Z,15.94
2022-08-05T19:46:16.781Z,15.91
2022-08-05T19:48:56.569Z,15.86
2022-08-05T19:52:04.982Z,15.83
2022-08-05T19:54:27.181Z,15.75
2022-08-05T19:56:58.621Z,15.70
2022-08-05T20:00:00.784Z,15.64
2022-08-05T20:02:13.049Z,15.58
2022-08-05T20:04:43.262Z,15.53
2022-08-05T20:07:13.872Z,15.48
2022-08-05T20:09:54.697Z,15.43
2022-08-05T20:12:24.545Z,15.38
2022-08-05T20:14:52.882Z,15.34
2022-08-05T20:17:23.637Z,15.31
2022-08-05T20:19:56.552Z,15.27
2022-08-05T20:22:24.213Z,15.24
2022-08-05T20:24:53.851Z,15.19
2022-08-05T20:27:26.861Z,15.15
2022-08-05T20:29:57.921Z,15.09
2022-08-05T20:32:26.291Z,15.06
2022-08-05T20:34:53.208Z,15.02
2022-08-05T20:38:04.796Z,15.00
2022-08-05T20:40:08.679Z,14.94
2022-08-05T20:42:35.533Z,14.90
2022-08-05T20:45:03.037Z,14.86
2022-08-05T20:47:32.034Z,14.81
2022-08-05T20:50:01.979Z,14.79
2022-08-05T20:52:29.271Z,14.75
2022-08-05T20:55:15.820Z,14.73
2022-08-05T20:57:44.667Z,14.68
2022-08-05T21:00:41.502Z,14.65
2022-08-05T21:03:07.146Z,14.61
2022-08-05T21:05:47.806Z,14.57
2022-08-05T21:08:21.291Z,14.53
2022-08-05T21:10:55.008Z,14.48
2022-08-05T21:13:37.882Z,14.46
2022-08-05T21:16:12.477Z,14.41
2022-08-05T21:18:39.201Z,14.41
2022-08-05T21:21:11.820Z,14.40
2022-08-05T21:23:38.986Z,14.36
2022-08-05T21:26:12.204Z,14.33
2022-08-05T21:28:40.986Z,14.30
2022-08-05T21:31:14.799Z,14.25
2022-08-05T21:33:43.376Z,14.19
2022-08-05T21:36:14.207Z,14.11
2022-08-05T21:38:54.767Z,14.05
2022-08-05T21:41:21.556Z,14.00
2022-08-05T21:44:01.609Z,13.95
2022-08-05T21:46:29.111Z,13.89
2022-08-05T21:48:56.560Z,13.83
2022-08-05T21:52:16.118Z,13.77
2022-08-05T21:54:10.001Z,13.71
2022-08-05T21:56:36.692Z,13.66
2022-08-05T21:59:24.341Z,13.62
2022-08-05T22:02:21.573Z,13.55
2022-08-05T22:04:53.277Z,13.49
2022-08-05T22:08:22.230Z,13.46
2022-08-05T22:10:54.476Z,13.36
2022-08-05T22:14:06.392Z,13.32
2022-08-05T22:16:40.512Z,13.38
2022-08-05T22:20:03.098Z,13.29
2022-08-05T22:24:03.330Z,13.19
2022-08-05T22:27:17.807Z,13.07
2022-08-05T22:30:55.931Z,12.96
2022-08-05T22:34:28.780Z,12.86
2022-08-05T22:37:58.573Z,12.77
2022-08-05T22:40:37.330Z,12.65
2022-08-05T22:43:47.825Z,12.59
2022-08-05T22:47:29.667Z,12.48
2022-08-05T22:50:23.460Z,12.40
2022-08-05T22:52:55.252Z,12.31
2022-08-05T22:58:57.225Z,12.17
2022-08-05T23:02:29.807Z,12.12
2022-08-05T23:06:11.883Z,12.03
2022-08-05T23:12:09.290Z,11.90
2022-08-05T23:15:26.852Z,11.87
2022-08-05T23:19:01.203Z,11.83
2022-08-05T23:25:52.395Z,11.72
2022-08-05T23:28:30.782Z,11.67
2022-08-05T23:31:16.603Z,11.64
2022-08-05T23:34:04.335Z,11.59
2022-08-05T23:37:34.168Z,11.53
2022-08-05T23:40:15.307Z,11.45
2022-08-05T23:42:47.344Z,11.42
2022-08-05T23:45:16.670Z,11.40
2022-08-05T23:47:48.299Z,11.36
2022-08-05T23:50:29.572Z,11.35
2022-08-05T23:53:04.245Z,11.31
2022-08-05T23:55:50.626Z,11.27
2022-08-05T23:58:31.946Z,11.25
